createdAt,value
2023-03-22T00:01:15.352Z,7.38
2023-03-22T00:03:42.658Z,7.28
2023-03-22T00:06:10.080Z,7.93
2023-03-22T00:08:37.514Z,6.43
2023-03-22T00:11:05.331Z,6.88
2023-03-22T00:13:35.391Z,6.47
2023-03-22T00:16:05.527Z,6.35
2023-03-22T00:18:32.800Z,6.95
2023-03-22T00:21:00.682Z,6.43
2023-03-22T00:23:28.947Z,6.78
2023-03-22T00:25:56.441Z,6.60
2023-03-22T00:28:23.647Z,6.78
2023-03-22T00:30:59.025Z,6.93
2023-03-22T00:33:26.327Z,6.75
2023-03-22T00:35:54.695Z,6.30
2023-03-22T00:38:29.955Z,6.53
2023-03-22T00:41:11.462Z,6.53
2023-03-22T00:43:38.999Z,6.25
2023-03-22T00:46:06.607Z,6.82
2023-03-22T00:48:33.898Z,6.20
2023-03-22T00:51:01.102Z,6.57
2023-03-22T00:53:29.195Z,5.88
2023-03-22T00:55:59.661Z,6.38
2023-03-22T00:58:26.774Z,5.72
2023-03-22T01:00:56.389Z,6.43
2023-03-22T01:03:24.759Z,6.07
2023-03-22T01:05:55.620Z,6.30
2023-03-22T01:08:23.326Z,6.43
2023-03-22T01:10:51.284Z,6.55
2023-03-22T01:13:18.825Z,6.07
2023-03-22T01:15:47.930Z,6.70
2023-03-22T01:18:15.261Z,6.15
2023-03-22T01:20:42.559Z,6.50
2023-03-22T01:23:09.861Z,7.15
2023-03-22T01:25:37.051Z,6.28
2023-03-22T01:28:06.672Z,6.28
2023-03-22T01:30:34.466Z,6.03
2023-03-22T01:33:01.788Z,6.45
2023-03-22T01:35:29.062Z,6.10
2023-03-22T01:37:56.335Z,6.30
2023-03-22T01:40:23.566Z,5.93
2023-03-22T01:42:50.813Z,6.57
2023-03-22T01:45:29.933Z,5.78
2023-03-22T01:47:59.773Z,7.60
2023-03-22T01:50:27.249Z,6.07
2023-03-22T01:52:55.907Z,7.00
2023-03-22T01:55:23.712Z,6.18
2023-03-22T01:57:51.556Z,6.20
2023-03-22T02:00:20.576Z,6.15
2023-03-22T02:02:49.477Z,6.82
2023-03-22T02:05:17.681Z,6.18
2023-03-22T02:07:44.970Z,7.05
2023-03-22T02:10:16.412Z,7.15
2023-03-22T02:13:02.732Z,6.82
2023-03-22T02:15:33.109Z,5.88
2023-03-22T02:18:11.524Z,6.63
2023-03-22T02:20:39.909Z,7.00
2023-03-22T02:23:26.044Z,7.05
2023-03-22T02:25:53.258Z,6.18
2023-03-22T02:28:35.869Z,7.63
2023-03-22T02:31:09.351Z,6.68
2023-03-22T02:33:55.308Z,6.95
2023-03-22T02:36:34.992Z,6.93
2023-03-22T02:39:17.572Z,6.65
2023-03-22T02:41:48.023Z,6.95
2023-03-22T02:44:24.366Z,6.57
2023-03-22T02:46:54.606Z,7.00
2023-03-22T02:49:40.857Z,6.60
2023-03-22T02:52:07.982Z,6.47
2023-03-22T02:54:46.670Z,6.65
2023-03-22T02:57:21.657Z,6.72
2023-03-22T02:59:50.340Z,6.55
2023-03-22T03:02:19.570Z,6.75
2023-03-22T03:04:48.784Z,6.80
2023-03-22T03:07:18.034Z,6.72
2023-03-22T03:09:45.361Z,6.70
2023-03-22T03:12:18.728Z,6.90
2023-03-22T03:14:46.087Z,7.22
2023-03-22T03:17:19.490Z,6.40
2023-03-22T03:19:52.930Z,6.80
2023-03-22T03:22:32.370Z,6.72
2023-03-22T03:25:02.729Z,6.97
2023-03-22T03:27:36.895Z,6.93
2023-03-22T03:30:10.677Z,6.90
2023-03-22T03:32:42.001Z,7.38
2023-03-22T03:35:22.278Z,6.07
2023-03-22T03:37:58.913Z,6.68
2023-03-22T03:40:26.061Z,6.57
2023-03-22T03:42:55.312Z,7.20
2023-03-22T03:45:22.554Z,6.63
2023-03-22T03:47:56.936Z,6.68
2023-03-22T03:50:25.565Z,7.00
2023-03-22T03:52:53.945Z,7.25
2023-03-22T03:55:21.603Z,7.18
2023-03-22T03:57:48.816Z,7.13
2023-03-22T04:00:16.964Z,6.93
2023-03-22T04:02:44.804Z,7.63
2023-03-22T04:05:12.588Z,6.88
2023-03-22T04:07:40.326Z,6.70
2023-03-22T04:10:07.865Z,7.07
2023-03-22T04:12:35.083Z,7.78
2023-03-22T04:15:02.269Z,7.05
2023-03-22T04:17:32.057Z,7.93
2023-03-22T04:19:59.425Z,7.35
2023-03-22T04:22:27.046Z,7.53
2023-03-22T04:24:54.194Z,7.03
2023-03-22T04:27:22.668Z,7.57
2023-03-22T04:29:50.939Z,7.75
2023-03-22T04:32:22.953Z,7.63
2023-03-22T04:34:50.693Z,8.18
2023-03-22T04:37:17.922Z,8.32
2023-03-22T04:39:45.361Z,7.68
2023-03-22T04:42:12.705Z,8.10
2023-03-22T04:44:39.814Z,8.65
2023-03-22T04:47:07.003Z,8.48
2023-03-22T04:49:34.303Z,7.80
2023-03-22T04:52:01.451Z,8.10
2023-03-22T04:54:28.758Z,8.00
2023-03-22T04:56:55.984Z,8.23
2023-03-22T04:59:23.080Z,7.68
2023-03-22T05:01:51.492Z,7.97
2023-03-22T05:04:19.355Z,8.00
2023-03-22T05:06:46.600Z,7.65
2023-03-22T05:09:14.487Z,7.85
2023-03-22T05:11:42.007Z,7.95
2023-03-22T05:14:09.688Z,9.07
2023-03-22T05:16:37.090Z,9.18
2023-03-22T05:19:04.333Z,7.90
2023-03-22T05:21:36.841Z,7.60
2023-03-22T05:24:04.531Z,8.98
2023-03-22T05:26:31.733Z,8.05
2023-03-22T05:28:59.004Z,8.05
2023-03-22T05:31:28.720Z,7.10
2023-03-22T05:33:56.045Z,8.23
2023-03-22T05:36:23.709Z,7.70
2023-03-22T05:38:50.912Z,7.82
2023-03-22T05:41:19.372Z,8.77
2023-03-22T05:43:46.621Z,7.47
2023-03-22T05:46:13.945Z,7.60
2023-03-22T05:48:41.663Z,8.43
2023-03-22T05:51:19.589Z,8.45
2023-03-22T05:53:47.775Z,8.20
2023-03-22T05:56:15.596Z,7.93
2023-03-22T05:58:43.225Z,8.00
2023-03-22T06:01:16.450Z,7.85
2023-03-22T06:03:43.726Z,7.88
2023-03-22T06:06:11.099Z,7.70
2023-03-22T06:08:39.503Z,8.13
2023-03-22T06:11:07.219Z,7.03
2023-03-22T06:13:34.526Z,7.45
2023-03-22T06:16:02.850Z,7.75
2023-03-22T06:18:30.931Z,6.47
2023-03-22T06:20:58.431Z,6.82
2023-03-22T06:23:25.819Z,7.00
2023-03-22T06:25:53.193Z,7.35
2023-03-22T06:28:20.500Z,7.40
2023-03-22T06:30:49.076Z,7.82
2023-03-22T06:33:16.345Z,7.45
2023-03-22T06:35:43.689Z,6.93
2023-03-22T06:38:11.022Z,6.28
2023-03-22T06:40:38.724Z,6.70
2023-03-22T06:43:07.354Z,6.90
2023-03-22T06:45:35.985Z,6.47
2023-03-22T06:48:03.240Z,6.00
2023-03-22T06:50:30.525Z,6.28
2023-03-22T06:52:57.739Z,6.22
2023-03-22T06:55:24.910Z,6.82
2023-03-22T06:57:52.083Z,5.75
2023-03-22T07:00:19.534Z,5.80
2023-03-22T07:02:47.048Z,6.03
2023-03-22T07:05:14.493Z,5.97
2023-03-22T07:07:41.761Z,6.40
2023-03-22T07:10:09.062Z,5.57
2023-03-22T07:12:36.557Z,5.85
2023-03-22T07:15:04.365Z,5.32
2023-03-22T07:17:31.623Z,5.20
2023-03-22T07:19:58.978Z,5.00
2023-03-22T07:22:27.344Z,4.93
2023-03-22T07:24:58.323Z,4.75
2023-03-22T07:27:27.021Z,4.93
2023-03-22T07:29:54.307Z,5.80
2023-03-22T07:32:21.622Z,5.50
2023-03-22T07:34:48.867Z,5.85
2023-03-22T07:37:16.031Z,5.88
2023-03-22T07:39:43.244Z,5.00
2023-03-22T07:42:10.505Z,4.53
2023-03-22T07:44:37.711Z,4.60
2023-03-22T07:47:04.927Z,4.93
2023-03-22T07:49:32.253Z,5.00
2023-03-22T07:51:59.739Z,4.80
2023-03-22T07:54:33.923Z,4.82
2023-03-22T07:57:01.970Z,4.70
2023-03-22T07:59:29.184Z,5.95
2023-03-22T08:01:56.539Z,4.80
2023-03-22T08:04:23.736Z,4.78
2023-03-22T08:06:51.414Z,5.10
2023-03-22T08:09:21.711Z,4.40
2023-03-22T08:11:48.889Z,4.65
2023-03-22T08:14:18.554Z,5.45
2023-03-22T08:16:49.388Z,4.85
2023-03-22T08:19:16.652Z,5.00
2023-03-22T08:21:43.897Z,4.82
2023-03-22T08:24:11.196Z,5.22
2023-03-22T08:26:39.367Z,4.47
2023-03-22T08:29:06.893Z,4.43
2023-03-22T08:31:34.327Z,4.80
2023-03-22T08:34:01.619Z,4.43
2023-03-22T08:36:29.166Z,4.38
2023-03-22T08:38:57.910Z,3.88
2023-03-22T08:41:25.301Z,4.38
2023-03-22T08:43:52.932Z,4.20
2023-03-22T08:46:20.282Z,4.15
2023-03-22T08:48:53.234Z,4.63
2023-03-22T08:53:48.115Z,4.35
2023-03-22T08:56:20.071Z,3.67
2023-03-22T08:58:49.309Z,3.75
2023-03-22T09:01:17.915Z,4.15
2023-03-22T09:03:45.152Z,4.28
2023-03-22T09:06:12.330Z,3.80
2023-03-22T09:08:39.603Z,3.60
2023-03-22T09:11:09.317Z,4.10
2023-03-22T09:13:36.618Z,3.85
2023-03-22T09:16:04.224Z,3.72
2023-03-22T09:18:31.487Z,3.90
2023-03-22T09:20:58.939Z,3.90
2023-03-22T09:23:26.500Z,3.22
2023-03-22T09:25:53.682Z,3.53
2023-03-22T09:28:20.810Z,3.70
2023-03-22T09:30:48.099Z,3.40
2023-03-22T09:33:15.356Z,3.72
2023-03-22T09:35:43.667Z,3.92
2023-03-22T09:38:12.184Z,4.00
2023-03-22T09:40:42.018Z,3.63
2023-03-22T09:43:10.447Z,3.40
2023-03-22T09:45:41.741Z,3.20
2023-03-22T09:48:23.119Z,3.28
2023-03-22T09:50:52.547Z,3.47
2023-03-22T09:53:20.594Z,4.10
2023-03-22T09:56:01.348Z,3.25
2023-03-22T09:58:28.578Z,3.00
2023-03-22T10:01:01.569Z,3.58
2023-03-22T10:03:47.649Z,2.95
2023-03-22T10:06:26.882Z,3.05
2023-03-22T10:09:01.198Z,3.20
2023-03-22T10:11:41.141Z,3.47
2023-03-22T10:14:24.686Z,3.22
2023-03-22T10:16:55.347Z,3.13
2023-03-22T10:19:35.941Z,2.88
2023-03-22T10:22:04.298Z,3.10
2023-03-22T10:24:33.578Z,2.70
2023-03-22T10:27:01.023Z,3.10
2023-03-22T10:29:37.394Z,2.63
2023-03-22T10:32:15.924Z,2.90
2023-03-22T10:34:43.589Z,2.50
2023-03-22T10:37:14.378Z,2.70
2023-03-22T10:39:42.857Z,2.35
2023-03-22T10:42:13.340Z,2.65
2023-03-22T10:44:51.440Z,2.83
2023-03-22T10:47:20.231Z,2.80
2023-03-22T10:49:54.978Z,2.85
2023-03-22T10:52:45.861Z,2.97
2023-03-22T10:55:14.340Z,2.88
2023-03-22T10:57:43.206Z,2.85
2023-03-22T11:00:12.656Z,2.75
2023-03-22T11:02:53.371Z,3.17
2023-03-22T11:05:23.023Z,2.88
2023-03-22T11:07:50.505Z,3.15
2023-03-22T11:10:21.854Z,3.45
2023-03-22T11:12:51.568Z,3.15
2023-03-22T11:15:23.823Z,3.88
2023-03-22T11:17:51.292Z,3.63
2023-03-22T11:20:20.056Z,3.67
2023-03-22T11:22:48.227Z,3.70
2023-03-22T11:25:17.352Z,3.38
2023-03-22T11:27:51.210Z,3.30
2023-03-22T11:30:20.563Z,3.70
2023-03-22T11:32:48.020Z,3.45
2023-03-22T11:35:21.801Z,3.08
2023-03-22T11:37:53.924Z,2.95
2023-03-22T11:40:25.579Z,2.40
2023-03-22T11:42:54.157Z,2.47
2023-03-22T11:45:32.922Z,2.35
2023-03-22T11:48:07.800Z,2.55
2023-03-22T11:50:39.905Z,2.85
2023-03-22T11:53:09.088Z,3.30
2023-03-22T11:55:36.976Z,3.15
2023-03-22T11:58:05.070Z,3.42
2023-03-22T12:00:33.443Z,3.38
2023-03-22T12:03:06.872Z,2.80
2023-03-22T12:05:35.129Z,3.30
2023-03-22T12:08:14.618Z,3.28
2023-03-22T12:10:43.085Z,3.30
2023-03-22T12:13:16.270Z,3.15
2023-03-22T12:15:48.984Z,3.90
2023-03-22T12:18:30.063Z,3.20
2023-03-22T12:20:58.250Z,3.33
2023-03-22T12:23:32.770Z,3.20
2023-03-22T12:26:09.116Z,3.35
2023-03-22T12:28:56.380Z,3.67
2023-03-22T12:31:30.870Z,3.60
2023-03-22T12:34:00.316Z,4.05
2023-03-22T12:36:47.708Z,3.63
2023-03-22T12:39:25.396Z,3.50
2023-03-22T12:41:54.424Z,3.45
2023-03-22T12:44:27.896Z,3.92
2023-03-22T12:47:13.692Z,3.88
2023-03-22T12:49:47.062Z,3.40
2023-03-22T12:52:25.226Z,3.55
2023-03-22T12:54:54.567Z,3.33
2023-03-22T12:57:21.744Z,3.40
2023-03-22T12:59:53.109Z,3.53
2023-03-22T13:02:30.149Z,3.10
2023-03-22T13:04:58.756Z,2.80
2023-03-22T13:07:31.748Z,3.60
2023-03-22T13:10:00.009Z,3.17
2023-03-22T13:12:29.773Z,2.55
2023-03-22T13:14:59.190Z,3.42
2023-03-22T13:17:27.389Z,2.80
2023-03-22T13:19:55.511Z,3.30
2023-03-22T13:22:42.634Z,3.10
2023-03-22T13:25:13.397Z,3.22
2023-03-22T13:27:46.846Z,4.05
2023-03-22T13:30:34.837Z,3.25
2023-03-22T13:33:09.727Z,3.20
2023-03-22T13:35:40.167Z,3.92
2023-03-22T13:38:16.660Z,2.90
2023-03-22T13:40:50.015Z,3.28
2023-03-22T13:43:28.312Z,3.10
2023-03-22T13:46:01.859Z,2.63
2023-03-22T13:48:33.037Z,2.55
2023-03-22T13:51:09.133Z,2.45
2023-03-22T13:53:39.190Z,2.10
2023-03-22T13:56:07.381Z,2.05
2023-03-22T13:58:37.642Z,2.33
2023-03-22T14:01:07.012Z,2.17
2023-03-22T14:03:39.069Z,1.95
2023-03-22T14:06:16.121Z,2.00
2023-03-22T14:08:44.957Z,2.30
2023-03-22T14:11:20.445Z,1.95
2023-03-22T14:13:51.394Z,2.20
2023-03-22T14:16:37.386Z,2.20
2023-03-22T14:19:06.437Z,2.58
2023-03-22T14:21:35.127Z,2.47
